Time;durP1;ratioP1;P1;durP2;ratioP2;P2;SDS_P1;SDS_P2;PMS_P1;PMS_P2;Temp;Humidity;BMP_temperature;BMP_pressure;BME280_temperature;BME280_humidity;BME280_pressure;Samples;Min_cycle;Max_cycle;Signal;HPM_P1;HPM_P2
2022/10/11 00:00:37;;;;;;;11.90;2.10;;;;;;;;;;4980805;28;20213;-87
2022/10/11 00:03:04;;;;;;;11.07;1.90;;;;;;;;;;4985104;28;20292;-88
2022/10/11 00:05:32;;;;;;;9.97;2.37;;;;;;;;;;4980099;28;20221;-86
2022/10/11 00:07:59;;;;;;;10.00;1.67;;;;;;;;;;4980370;28;20218;-86
2022/10/11 00:10:27;;;;;;;5.93;1.50;;;;;;;;;;4980262;28;20209;-86
2022/10/11 00:12:55;;;;;;;4.23;1.40;;;;;;;;;;4980241;28;20221;-86
2022/10/11 00:15:23;;;;;;;9.67;1.50;;;;;;;;;;4982508;28;20239;-86
2022/10/11 00:17:50;;;;;;;11.43;2.13;;;;;;;;;;4965676;28;20235;-86
2022/10/11 00:20:18;;;;;;;5.27;1.67;;;;;;;;;;4989283;28;20205;-86
2022/10/11 00:22:45;;;;;;;6.37;1.90;;;;;;;;;;4981358;28;20204;-86
2022/10/11 00:25:13;;;;;;;7.57;1.67;;;;;;;;;;4977901;28;20719;-86
2022/10/11 00:27:40;;;;;;;10.53;1.27;;;;;;;;;;4981202;28;20673;-87
2022/10/11 00:30:10;;;;;;;11.60;1.40;;;;;;;;;;4981736;28;20232;-86
2022/10/11 00:32:39;;;;;;;9.20;2.17;;;;;;;;;;4979987;28;20247;-87
2022/10/11 00:35:07;;;;;;;8.77;1.50;;;;;;;;;;4977322;28;20232;-86
2022/10/11 00:37:36;;;;;;;9.70;1.50;;;;;;;;;;4975770;28;20210;-86
2022/10/11 00:40:04;;;;;;;11.20;1.63;;;;;;;;;;4976572;28;20205;-87
2022/10/11 00:42:32;;;;;;;5.93;1.90;;;;;;;;;;4981790;28;20232;-85
2022/10/11 00:45:14;;;;;;;8.07;1.87;;;;;;;;;;4978715;28;20226;-86
2022/10/11 00:47:45;;;;;;;6.53;1.33;;;;;;;;;;4977400;28;20567;-87
2022/10/11 00:50:12;;;;;;;8.17;1.50;;;;;;;;;;4981520;28;20221;-87
2022/10/11 00:52:42;;;;;;;6.63;1.43;;;;;;;;;;4974706;28;20228;-88
2022/10/11 00:55:12;;;;;;;9.07;1.97;;;;;;;;;;4980530;28;20225;-87
2022/10/11 00:57:41;;;;;;;12.37;1.53;;;;;;;;;;4981919;28;20220;-86
2022/10/11 01:00:11;;;;;;;9.00;1.60;;;;;;;;;;4978094;28;20251;-86
2022/10/11 01:02:38;;;;;;;8.90;1.97;;;;;;;;;;4977212;28;20206;-88
2022/10/11 01:05:09;;;;;;;13.47;2.20;;;;;;;;;;4979083;28;20225;-86
2022/10/11 01:07:37;;;;;;;8.60;1.67;;;;;;;;;;4980363;28;20221;-87
2022/10/11 01:10:04;;;;;;;7.93;1.60;;;;;;;;;;4979148;28;20208;-85
2022/10/11 01:12:32;;;;;;;12.67;1.53;;;;;;;;;;4979307;28;20225;-87
2022/10/11 01:15:05;;;;;;;10.83;1.83;;;;;;;;;;4981344;28;20755;-87
2022/10/11 01:17:36;;;;;;;6.93;1.33;;;;;;;;;;4982384;28;20200;-87
2022/10/11 01:20:16;;;;;;;7.03;1.63;;;;;;;;;;4980456;28;20234;-87
2022/10/11 01:22:59;;;;;;;6.70;1.60;;;;;;;;;;4976616;28;20204;-86
2022/10/11 01:25:28;;;;;;;7.97;1.50;;;;;;;;;;4981487;28;20315;-86
2022/10/11 01:28:02;;;;;;;8.97;1.90;;;;;;;;;;4977279;28;20201;-86
2022/10/11 01:30:32;;;;;;;13.27;1.80;;;;;;;;;;4972666;28;20216;-86
2022/10/11 01:33:08;;;;;;;10.40;2.00;;;;;;;;;;4978552;28;20307;-87
2022/10/11 01:35:40;;;;;;;8.67;2.47;;;;;;;;;;4976069;28;20240;-86
2022/10/11 01:38:10;;;;;;;7.43;1.57;;;;;;;;;;4977907;28;20208;-89
2022/10/11 01:40:40;;;;;;;4.43;1.47;;;;;;;;;;4976189;28;20303;-89
2022/10/11 01:43:07;;;;;;;15.23;2.10;;;;;;;;;;4980222;28;20205;-88
2022/10/11 01:45:37;;;;;;;8.77;2.07;;;;;;;;;;4979861;28;20225;-88
2022/10/11 01:48:06;;;;;;;6.23;1.70;;;;;;;;;;4984046;28;20201;-88
2022/10/11 01:50:41;;;;;;;7.20;1.40;;;;;;;;;;4980379;28;20209;-88
2022/10/11 01:53:16;;;;;;;5.77;1.90;;;;;;;;;;4983442;28;20216;-88
2022/10/11 01:55:47;;;;;;;11.73;1.80;;;;;;;;;;4979698;28;20311;-89
2022/10/11 01:58:17;;;;;;;13.37;2.33;;;;;;;;;;4981242;28;20670;-88
2022/10/11 02:00:50;;;;;;;10.43;2.20;;;;;;;;;;4985452;28;20205;-89
2022/10/11 02:03:21;;;;;;;4.73;2.23;;;;;;;;;;4979730;28;20213;-89
2022/10/11 02:05:50;;;;;;;11.03;2.30;;;;;;;;;;4980994;28;20224;-88
2022/10/11 02:08:21;;;;;;;12.90;2.30;;;;;;;;;;4983014;28;20204;-89
2022/10/11 02:10:50;;;;;;;10.97;1.97;;;;;;;;;;4980533;28;20209;-89
2022/10/11 02:13:20;;;;;;;5.63;1.97;;;;;;;;;;4980952;28;20240;-88
2022/10/11 02:15:50;;;;;;;9.73;1.60;;;;;;;;;;4965009;28;20259;-89
2022/10/11 02:18:20;;;;;;;6.97;1.50;;;;;;;;;;4985814;28;20288;-89
2022/10/11 02:20:48;;;;;;;7.70;2.07;;;;;;;;;;4983708;28;20201;-89
2022/10/11 02:23:17;;;;;;;6.90;2.10;;;;;;;;;;4985875;28;20233;-88
2022/10/11 02:25:45;;;;;;;7.27;2.10;;;;;;;;;;4984192;28;20237;-88
2022/10/11 02:28:14;;;;;;;8.47;1.70;;;;;;;;;;4988264;28;20209;-89
2022/10/11 02:30:42;;;;;;;9.17;2.30;;;;;;;;;;4986483;28;20205;-88
2022/10/11 02:33:13;;;;;;;13.37;2.00;;;;;;;;;;4986521;28;20807;-90
2022/10/11 02:35:43;;;;;;;10.00;2.00;;;;;;;;;;4980044;28;20253;-89
2022/10/11 02:38:14;;;;;;;7.77;1.93;;;;;;;;;;4987460;28;20215;-88
2022/10/11 02:40:44;;;;;;;14.27;2.23;;;;;;;;;;4981825;28;20214;-88
2022/10/11 02:43:16;;;;;;;12.47;2.23;;;;;;;;;;4987049;28;20295;-88
2022/10/11 02:45:45;;;;;;;8.77;2.00;;;;;;;;;;4982004;28;20226;-89
2022/10/11 02:48:15;;;;;;;15.83;2.17;;;;;;;;;;4985259;28;20220;-90
2022/10/11 02:50:43;;;;;;;10.37;2.33;;;;;;;;;;4989436;28;20217;-89
2022/10/11 02:53:10;;;;;;;11.80;2.27;;;;;;;;;;4982667;28;20311;-89
2022/10/11 02:55:38;;;;;;;8.63;2.20;;;;;;;;;;5851977;22;20732;-89
2022/10/11 02:58:05;;;;;;;9.23;1.90;;;;;;;;;;4966139;28;20225;-89
2022/10/11 03:00:32;;;;;;;10.47;2.37;;;;;;;;;;4964879;28;20206;-88
2022/10/11 03:03:00;;;;;;;8.80;2.27;;;;;;;;;;4969396;28;20201;-90
2022/10/11 03:05:29;;;;;;;9.40;1.80;;;;;;;;;;4967684;28;20309;-89
2022/10/11 03:07:56;;;;;;;18.37;2.77;;;;;;;;;;4962667;28;20210;-89
2022/10/11 03:10:23;;;;;;;12.67;2.40;;;;;;;;;;4966566;28;20686;-87
2022/10/11 03:12:51;;;;;;;8.57;2.20;;;;;;;;;;4966043;28;20751;-88
2022/10/11 03:15:18;;;;;;;15.70;2.37;;;;;;;;;;4964821;28;20222;-89
2022/10/11 03:17:45;;;;;;;18.80;2.70;;;;;;;;;;4970141;28;20211;-90
2022/10/11 03:20:12;;;;;;;13.97;2.70;;;;;;;;;;4966095;28;20297;-88
2022/10/11 03:22:41;;;;;;;9.57;2.43;;;;;;;;;;4968574;28;20208;-88
2022/10/11 03:25:09;;;;;;;7.50;2.63;;;;;;;;;;4966525;28;20230;-88
2022/10/11 03:27:36;;;;;;;15.13;2.60;;;;;;;;;;4966531;28;20237;-89
2022/10/11 03:30:05;;;;;;;12.33;2.93;;;;;;;;;;4969351;28;20308;-90
2022/10/11 03:32:32;;;;;;;10.90;2.33;;;;;;;;;;4966649;28;20229;-88
2022/10/11 03:34:59;;;;;;;8.07;2.10;;;;;;;;;;4967688;28;20320;-88
2022/10/11 03:37:27;;;;;;;12.03;2.30;;;;;;;;;;4966537;28;20198;-89
2022/10/11 03:39:56;;;;;;;13.00;2.33;;;;;;;;;;4967952;28;20292;-88
2022/10/11 03:42:23;;;;;;;17.77;2.93;;;;;;;;;;4965412;28;20206;-90
2022/10/11 03:44:51;;;;;;;12.80;2.30;;;;;;;;;;4972489;28;20316;-88
2022/10/11 03:47:18;;;;;;;7.77;2.40;;;;;;;;;;4967481;28;20221;-88
2022/10/11 03:49:46;;;;;;;10.30;2.30;;;;;;;;;;4966702;28;20218;-88
2022/10/11 03:52:13;;;;;;;8.33;2.50;;;;;;;;;;4966287;28;20225;-89
2022/10/11 03:54:40;;;;;;;11.13;2.70;;;;;;;;;;4966221;28;20644;-89
2022/10/11 03:57:09;;;;;;;8.73;2.50;;;;;;;;;;4966655;28;20320;-89
2022/10/11 03:59:36;;;;;;;4.83;1.90;;;;;;;;;;4967340;28;20284;-89
2022/10/11 04:02:04;;;;;;;7.83;2.57;;;;;;;;;;4964336;28;21061;-87
2022/10/11 04:04:31;;;;;;;10.33;2.20;;;;;;;;;;4950365;28;20280;-88
2022/10/11 04:06:59;;;;;;;11.00;2.30;;;;;;;;;;4972392;28;20285;-89
2022/10/11 04:09:27;;;;;;;6.63;2.10;;;;;;;;;;4964401;28;20327;-88
2022/10/11 04:11:55;;;;;;;13.80;2.87;;;;;;;;;;4967738;28;20237;-88
2022/10/11 04:14:24;;;;;;;7.40;2.30;;;;;;;;;;4968735;28;20304;-87
2022/10/11 04:16:51;;;;;;;14.57;2.30;;;;;;;;;;4965941;28;20281;-88
2022/10/11 04:19:19;;;;;;;6.43;2.17;;;;;;;;;;4968770;28;20303;-89
2022/10/11 04:21:46;;;;;;;10.27;2.37;;;;;;;;;;4965903;28;20214;-91
2022/10/11 04:24:13;;;;;;;10.27;2.40;;;;;;;;;;4967674;28;20222;-89
2022/10/11 04:26:41;;;;;;;13.83;2.37;;;;;;;;;;4964931;28;20213;-90
2022/10/11 04:29:08;;;;;;;12.20;2.10;;;;;;;;;;4962590;28;20292;-89
2022/10/11 04:31:37;;;;;;;11.63;2.13;;;;;;;;;;4966188;28;20204;-88
2022/10/11 04:34:04;;;;;;;12.77;2.43;;;;;;;;;;4963187;28;20234;-89
2022/10/11 04:36:32;;;;;;;10.80;2.00;;;;;;;;;;4964542;28;20205;-89
2022/10/11 04:39:00;;;;;;;9.40;2.20;;;;;;;;;;4964854;28;20292;-89
2022/10/11 04:41:28;;;;;;;7.73;2.00;;;;;;;;;;4964344;28;20205;-88
2022/10/11 04:43:55;;;;;;;9.70;1.90;;;;;;;;;;4964340;28;20203;-90
2022/10/11 04:46:23;;;;;;;7.60;2.20;;;;;;;;;;4948565;28;20225;-88
2022/10/11 04:48:53;;;;;;;15.43;2.47;;;;;;;;;;4965657;28;20209;-89
2022/10/11 04:51:20;;;;;;;10.27;2.17;;;;;;;;;;4965174;28;20709;-90
2022/10/11 04:53:49;;;;;;;5.70;2.20;;;;;;;;;;4963086;28;20910;-89
2022/10/11 04:56:17;;;;;;;11.17;2.10;;;;;;;;;;4964872;28;20704;-91
2022/10/11 04:58:46;;;;;;;8.30;2.10;;;;;;;;;;4963851;28;20233;-89
2022/10/11 05:01:14;;;;;;;11.47;2.40;;;;;;;;;;4962247;28;20210;-87
2022/10/11 05:03:41;;;;;;;10.27;2.23;;;;;;;;;;4961797;28;20213;-88
2022/10/11 05:06:10;;;;;;;7.63;1.93;;;;;;;;;;4964364;28;20217;-88
2022/10/11 05:08:37;;;;;;;8.13;2.20;;;;;;;;;;4962750;28;20212;-88
2022/10/11 05:11:06;;;;;;;16.17;2.80;;;;;;;;;;4959742;28;20216;-89
2022/10/11 05:13:34;;;;;;;9.70;1.80;;;;;;;;;;4962474;28;20561;-87
2022/10/11 05:16:02;;;;;;;10.23;1.97;;;;;;;;;;4959748;28;20237;-90
2022/10/11 05:18:30;;;;;;;8.27;2.63;;;;;;;;;;4961028;28;20214;-88
2022/10/11 05:21:02;;;;;;;10.27;2.67;;;;;;;;;;4962442;28;20217;-89
2022/10/11 05:23:32;;;;;;;12.00;2.40;;;;;;;;;;4961597;28;20201;-89
2022/10/11 05:25:59;;;;;;;7.97;2.00;;;;;;;;;;4964170;28;20317;-89
2022/10/11 05:28:27;;;;;;;14.27;2.50;;;;;;;;;;4962063;28;20285;-88
2022/10/11 05:30:55;;;;;;;6.97;2.27;;;;;;;;;;4963623;28;20297;-89
2022/10/11 05:33:22;;;;;;;7.80;2.40;;;;;;;;;;4961964;28;20229;-89
2022/10/11 05:35:49;;;;;;;8.43;2.50;;;;;;;;;;4960531;28;20688;-87
2022/10/11 05:38:17;;;;;;;7.00;2.30;;;;;;;;;;4962179;28;20205;-89
2022/10/11 05:40:46;;;;;;;10.73;2.50;;;;;;;;;;4962809;28;20561;-90
2022/10/11 05:43:14;;;;;;;8.70;2.33;;;;;;;;;;4964795;28;20206;-88
2022/10/11 05:45:42;;;;;;;10.63;2.70;;;;;;;;;;4964445;28;20226;-89
2022/10/11 05:48:10;;;;;;;8.00;2.63;;;;;;;;;;4964218;28;20201;-90
2022/10/11 05:50:37;;;;;;;10.93;3.10;;;;;;;;;;4960377;28;20204;-87
2022/10/11 05:53:05;;;;;;;13.07;2.70;;;;;;;;;;4964820;28;20306;-87
2022/10/11 05:55:35;;;;;;;6.57;2.43;;;;;;;;;;4964963;28;20225;-87
2022/10/11 05:58:04;;;;;;;10.43;2.33;;;;;;;;;;4965137;28;20218;-88
2022/10/11 06:00:31;;;;;;;10.17;2.70;;;;;;;;;;4958064;28;20205;-86
2022/10/11 06:02:59;;;;;;;10.53;2.60;;;;;;;;;;4960956;28;20201;-86
2022/10/11 06:05:26;;;;;;;10.87;2.67;;;;;;;;;;4956819;28;20233;-90
2022/10/11 06:07:53;;;;;;;11.67;3.03;;;;;;;;;;4960776;28;20237;-89
2022/10/11 06:10:21;;;;;;;12.10;2.70;;;;;;;;;;4961351;28;20221;-92
2022/10/11 06:12:48;;;;;;;7.33;2.90;;;;;;;;;;4960208;28;20741;-88
2022/10/11 06:15:17;;;;;;;5.67;2.67;;;;;;;;;;4963481;28;20232;-89
2022/10/11 06:17:44;;;;;;;13.30;3.10;;;;;;;;;;4958818;28;20202;-89
2022/10/11 06:20:12;;;;;;;12.47;3.57;;;;;;;;;;4962577;28;20206;-89
2022/10/11 06:22:39;;;;;;;10.07;3.63;;;;;;;;;;4961617;28;20209;-90
2022/10/11 06:25:07;;;;;;;11.50;3.60;;;;;;;;;;4965830;28;20313;-89
2022/10/11 06:27:34;;;;;;;11.43;4.50;;;;;;;;;;4965121;28;20205;-91
2022/10/11 06:30:02;;;;;;;12.03;4.10;;;;;;;;;;4961850;28;20707;-90
2022/10/11 06:32:31;;;;;;;13.93;4.07;;;;;;;;;;4961392;28;20211;-89
2022/10/11 06:34:58;;;;;;;11.10;3.90;;;;;;;;;;4966258;28;20696;-92
2022/10/11 06:37:25;;;;;;;9.37;3.10;;;;;;;;;;4962819;28;20197;-91
2022/10/11 06:39:53;;;;;;;9.10;3.03;;;;;;;;;;4962401;28;20637;-92
2022/10/11 06:42:20;;;;;;;14.77;4.00;;;;;;;;;;4965652;28;20232;-91
2022/10/11 06:44:47;;;;;;;11.43;4.00;;;;;;;;;;4961448;28;20228;-91
2022/10/11 06:47:15;;;;;;;11.83;3.73;;;;;;;;;;4956936;28;20206;-90
2022/10/11 06:49:44;;;;;;;18.70;4.87;;;;;;;;;;4967520;28;20292;-89
2022/10/11 06:52:11;;;;;;;13.17;5.87;;;;;;;;;;4973520;28;20206;-89
2022/10/11 06:54:38;;;;;;;13.10;6.33;;;;;;;;;;4967168;28;20859;-90
2022/10/11 06:57:05;;;;;;;20.67;6.23;;;;;;;;;;4967405;28;20609;-90
2022/10/11 06:59:33;;;;;;;16.00;4.70;;;;;;;;;;4964792;28;20661;-90
2022/10/11 07:02:00;;;;;;;20.90;4.77;;;;;;;;;;4966869;28;20209;-90
2022/10/11 07:04:28;;;;;;;12.20;4.70;;;;;;;;;;4969801;28;20222;-89
2022/10/11 07:06:57;;;;;;;18.40;4.60;;;;;;;;;;4953758;28;20202;-90
2022/10/11 07:09:24;;;;;;;17.73;4.10;;;;;;;;;;4969008;28;20577;-90
2022/10/11 07:11:52;;;;;;;11.10;4.57;;;;;;;;;;4969766;28;20205;-89
2022/10/11 07:14:19;;;;;;;12.43;4.33;;;;;;;;;;4964043;28;20566;-90
2022/10/11 07:16:46;;;;;;;12.87;4.13;;;;;;;;;;4967709;28;20200;-91
2022/10/11 07:19:14;;;;;;;18.30;4.60;;;;;;;;;;4969394;28;20217;-89
2022/10/11 07:21:41;;;;;;;28.23;7.97;;;;;;;;;;4970388;28;20208;-91
2022/10/11 07:24:10;;;;;;;48.43;14.30;;;;;;;;;;4970442;28;20641;-89
2022/10/11 07:26:39;;;;;;;48.37;13.57;;;;;;;;;;4970884;28;20260;-88
2022/10/11 07:29:09;;;;;;;39.40;13.93;;;;;;;;;;4970574;28;20743;-90
2022/10/11 07:31:37;;;;;;;60.93;19.20;;;;;;;;;;4969278;28;20683;-91
2022/10/11 07:34:05;;;;;;;57.20;18.70;;;;;;;;;;4971913;28;20226;-91
2022/10/11 07:36:32;;;;;;;19.53;7.57;;;;;;;;;;4979130;28;20221;-90
2022/10/11 07:39:00;;;;;;;22.30;6.43;;;;;;;;;;4974752;28;20212;-89
2022/10/11 07:41:28;;;;;;;16.43;5.57;;;;;;;;;;4961017;28;20256;-90
2022/10/11 07:43:56;;;;;;;17.60;5.00;;;;;;;;;;4966256;28;20941;-90
2022/10/11 07:46:23;;;;;;;24.17;5.70;;;;;;;;;;4960087;28;20217;-92
2022/10/11 07:48:51;;;;;;;14.37;4.30;;;;;;;;;;4961539;28;20214;-90
2022/10/11 07:51:19;;;;;;;17.33;4.27;;;;;;;;;;4962111;28;20209;-90
2022/10/11 07:53:48;;;;;;;20.87;4.23;;;;;;;;;;4957033;28;20274;-90
2022/10/11 07:56:16;;;;;;;14.93;3.50;;;;;;;;;;4960148;28;20230;-91
2022/10/11 07:58:46;;;;;;;11.93;3.60;;;;;;;;;;4964234;28;20205;-92
2022/10/11 08:01:13;;;;;;;13.47;2.90;;;;;;;;;;4963932;28;20284;-89
2022/10/11 08:03:41;;;;;;;12.27;3.10;;;;;;;;;;4963592;28;20216;-90
2022/10/11 08:06:09;;;;;;;10.20;3.17;;;;;;;;;;4954574;28;20334;-88
2022/10/11 08:08:36;;;;;;;17.00;3.43;;;;;;;;;;4960537;28;20217;-88
2022/10/11 08:11:04;;;;;;;12.70;3.13;;;;;;;;;;4957700;28;20258;-90
2022/10/11 08:13:32;;;;;;;13.60;3.63;;;;;;;;;;4963782;28;20584;-90
2022/10/11 08:16:01;;;;;;;9.63;3.07;;;;;;;;;;4962779;28;20474;-89
2022/10/11 08:18:28;;;;;;;12.63;3.00;;;;;;;;;;4957412;28;20256;-89
2022/10/11 08:20:55;;;;;;;11.07;3.40;;;;;;;;;;4959743;28;20244;-88
2022/10/11 08:23:23;;;;;;;15.80;3.70;;;;;;;;;;4958701;28;20210;-88
2022/10/11 08:25:50;;;;;;;16.23;3.50;;;;;;;;;;4958628;28;20226;-89
2022/10/11 08:28:17;;;;;;;8.43;2.63;;;;;;;;;;4958167;28;20592;-88
2022/10/11 08:30:48;;;;;;;15.00;3.30;;;;;;;;;;4964594;28;20216;-88
2022/10/11 08:33:18;;;;;;;16.60;3.50;;;;;;;;;;4962122;28;20206;-88
2022/10/11 08:35:45;;;;;;;12.60;2.57;;;;;;;;;;4960049;28;20283;-89
2022/10/11 08:38:12;;;;;;;16.00;2.77;;;;;;;;;;4956897;28;20220;-88
2022/10/11 08:40:46;;;;;;;12.27;2.60;;;;;;;;;;4952565;28;20208;-89
2022/10/11 08:43:16;;;;;;;14.73;2.70;;;;;;;;;;4955952;28;20216;-88
2022/10/11 08:45:44;;;;;;;14.60;2.37;;;;;;;;;;4953161;28;20253;-89
2022/10/11 08:48:14;;;;;;;11.53;2.03;;;;;;;;;;4960050;28;20205;-88
2022/10/11 08:50:45;;;;;;;12.73;2.80;;;;;;;;;;4960517;28;20209;-88
2022/10/11 08:53:20;;;;;;;10.90;2.60;;;;;;;;;;4957582;28;20968;-87
2022/10/11 08:55:50;;;;;;;8.63;2.40;;;;;;;;;;4960379;28;20237;-88
2022/10/11 08:58:27;;;;;;;10.33;2.50;;;;;;;;;;4967642;28;20217;-88
2022/10/11 09:00:57;;;;;;;9.30;2.33;;;;;;;;;;4964216;28;20205;-89
2022/10/11 09:03:27;;;;;;;10.43;2.13;;;;;;;;;;4962808;28;20237;-88
2022/10/11 09:06:03;;;;;;;10.03;2.00;;;;;;;;;;4960992;28;20305;-88
2022/10/11 09:08:35;;;;;;;17.00;2.60;;;;;;;;;;4971420;28;20266;-88
2022/10/11 09:11:06;;;;;;;9.83;2.17;;;;;;;;;;4981045;28;20206;-88
2022/10/11 09:13:50;;;;;;;9.60;2.20;;;;;;;;;;4968876;28;20252;-88
2022/10/11 09:16:24;;;;;;;11.87;2.33;;;;;;;;;;4960029;28;20576;-87
2022/10/11 09:19:00;;;;;;;9.73;2.20;;;;;;;;;;4957826;28;20559;-89
2022/10/11 09:21:42;;;;;;;16.33;2.60;;;;;;;;;;4962587;28;20205;-90
2022/10/11 09:24:24;;;;;;;10.53;2.63;;;;;;;;;;4965275;28;21529;-89
2022/10/11 09:26:54;;;;;;;7.97;2.00;;;;;;;;;;4958623;28;20288;-89
2022/10/11 09:29:28;;;;;;;10.60;2.00;;;;;;;;;;4962789;28;20197;-91
2022/10/11 09:31:56;;;;;;;12.47;2.20;;;;;;;;;;4960371;28;20694;-89
2022/10/11 09:34:25;;;;;;;14.77;2.53;;;;;;;;;;4960567;28;20225;-88
2022/10/11 09:37:04;;;;;;;11.83;2.40;;;;;;;;;;4964799;28;20210;-92
2022/10/11 09:39:33;;;;;;;9.43;2.03;;;;;;;;;;4957832;28;20268;-88
2022/10/11 09:42:01;;;;;;;10.40;2.07;;;;;;;;;;4954748;28;20574;-91
2022/10/11 09:44:29;;;;;;;14.40;2.27;;;;;;;;;;4971673;28;20229;-91
2022/10/11 09:46:58;;;;;;;12.50;2.03;;;;;;;;;;4978677;28;20261;-90
2022/10/11 09:49:29;;;;;;;7.17;1.90;;;;;;;;;;4978193;28;20233;-90
2022/10/11 09:51:59;;;;;;;9.17;2.03;;;;;;;;;;4962329;28;20691;-89
2022/10/11 09:54:37;;;;;;;11.13;2.00;;;;;;;;;;4966260;28;20615;-90
2022/10/11 09:57:05;;;;;;;11.17;2.20;;;;;;;;;;4961510;28;20218;-90
2022/10/11 09:59:34;;;;;;;13.07;1.97;;;;;;;;;;4962366;28;20258;-90
2022/10/11 10:02:18;;;;;;;8.40;1.63;;;;;;;;;;4965446;28;20277;-92
2022/10/11 10:05:07;;;;;;;8.60;2.00;;;;;;;;;;4959687;28;20217;-91
2022/10/11 10:07:38;;;;;;;12.20;2.10;;;;;;;;;;4961437;28;20198;-90
2022/10/11 10:10:26;;;;;;;10.27;1.60;;;;;;;;;;4967466;28;20206;-89
2022/10/11 10:12:54;;;;;;;12.63;1.70;;;;;;;;;;4967241;28;20222;-89
2022/10/11 10:15:22;;;;;;;5.97;1.40;;;;;;;;;;4964454;28;20233;-89
2022/10/11 10:17:50;;;;;;;10.70;2.00;;;;;;;;;;4950004;28;20683;-91
2022/10/11 10:20:20;;;;;;;8.10;1.40;;;;;;;;;;4963481;28;20221;-88
2022/10/11 10:22:50;;;;;;;8.03;1.40;;;;;;;;;;4964871;28;20288;-89
2022/10/11 10:25:22;;;;;;;8.93;1.73;;;;;;;;;;4967046;28;20602;-89
2022/10/11 10:27:57;;;;;;;7.37;1.57;;;;;;;;;;4970370;28;20705;-91
2022/10/11 10:30:24;;;;;;;6.30;1.47;;;;;;;;;;4967120;28;20595;-89
2022/10/11 10:32:54;;;;;;;6.77;1.23;;;;;;;;;;4959129;28;20290;-89
2022/10/11 10:35:30;;;;;;;8.40;1.13;;;;;;;;;;4977264;28;20221;-89
2022/10/11 10:38:08;;;;;;;6.03;1.60;;;;;;;;;;4966282;28;20201;-89
2022/10/11 10:40:41;;;;;;;7.17;1.47;;;;;;;;;;4972724;28;20209;-90
2022/10/11 10:43:14;;;;;;;6.70;1.70;;;;;;;;;;4969024;28;20288;-92
2022/10/11 10:45:52;;;;;;;8.37;1.70;;;;;;;;;;4967686;28;20719;-90
2022/10/11 10:48:25;;;;;;;10.50;1.33;;;;;;;;;;4948472;28;20336;-91
2022/10/11 10:50:57;;;;;;;5.23;1.43;;;;;;;;;;4969793;28;20248;-90
2022/10/11 10:53:29;;;;;;;11.47;1.50;;;;;;;;;;4966595;28;20217;-91
2022/10/11 10:56:01;;;;;;;9.03;1.33;;;;;;;;;;4964789;28;20230;-91
2022/10/11 10:58:44;;;;;;;8.30;1.60;;;;;;;;;;4968662;28;20216;-91
2022/10/11 11:01:14;;;;;;;14.33;2.80;;;;;;;;;;4976101;28;20597;-89
2022/10/11 11:03:44;;;;;;;5.43;1.20;;;;;;;;;;4972570;28;20205;-90
2022/10/11 11:06:17;;;;;;;6.10;1.00;;;;;;;;;;4968939;28;20201;-90
2022/10/11 11:08:55;;;;;;;7.20;1.60;;;;;;;;;;4973628;28;20205;-92
2022/10/11 11:11:33;;;;;;;6.80;1.43;;;;;;;;;;4965364;28;20201;-91
2022/10/11 11:14:03;;;;;;;6.30;1.13;;;;;;;;;;4970461;28;20284;-90
2022/10/11 11:16:37;;;;;;;8.67;0.97;;;;;;;;;;4969026;28;20224;-90
2022/10/11 11:19:09;;;;;;;3.80;1.10;;;;;;;;;;4986663;28;20204;-91
2022/10/11 11:21:40;;;;;;;12.30;1.50;;;;;;;;;;4966376;28;20593;-90
2022/10/11 11:24:14;;;;;;;7.47;1.10;;;;;;;;;;4964068;28;20232;-92
2022/10/11 11:26:45;;;;;;;8.13;1.57;;;;;;;;;;4967792;28;20204;-93
2022/10/11 11:29:17;;;;;;;6.27;1.07;;;;;;;;;;4968202;28;20701;-88
2022/10/11 11:31:59;;;;;;;7.83;1.13;;;;;;;;;;4968715;28;20205;-91
2022/10/11 11:34:27;;;;;;;9.17;1.20;;;;;;;;;;4966300;28;20221;-89
2022/10/11 11:36:57;;;;;;;10.60;1.10;;;;;;;;;;4969342;28;20861;-93
2022/10/11 11:39:26;;;;;;;4.83;1.33;;;;;;;;;;4968105;28;20198;-89
2022/10/11 11:41:57;;;;;;;7.57;1.20;;;;;;;;;;4967001;28;20205;-91
2022/10/11 11:44:26;;;;;;;11.47;1.07;;;;;;;;;;4970006;28;20719;-91
2022/10/11 11:46:57;;;;;;;10.73;1.10;;;;;;;;;;4967786;28;20214;-89
2022/10/11 11:49:28;;;;;;;6.27;1.10;;;;;;;;;;4968699;28;20201;-90
2022/10/11 11:51:57;;;;;;;5.57;1.00;;;;;;;;;;4963768;28;20293;-90
2022/10/11 11:54:30;;;;;;;6.07;0.93;;;;;;;;;;4964386;28;20733;-91
2022/10/11 11:57:02;;;;;;;6.40;1.07;;;;;;;;;;4962917;28;20216;-91
2022/10/11 11:59:32;;;;;;;8.00;1.10;;;;;;;;;;4963043;28;20237;-91
2022/10/11 12:02:02;;;;;;;5.27;1.20;;;;;;;;;;4965334;28;20418;-89
2022/10/11 12:04:35;;;;;;;5.63;1.17;;;;;;;;;;4963531;28;20233;-90
2022/10/11 12:07:06;;;;;;;8.67;1.53;;;;;;;;;;4969171;28;20213;-89
2022/10/11 12:09:36;;;;;;;7.10;1.53;;;;;;;;;;4963267;28;20292;-90
2022/10/11 12:12:05;;;;;;;5.30;1.00;;;;;;;;;;4961368;28;20653;-90
2022/10/11 12:14:38;;;;;;;6.10;1.37;;;;;;;;;;4963217;28;20229;-89
2022/10/11 12:17:06;;;;;;;9.43;1.03;;;;;;;;;;4950755;28;20212;-90
2022/10/11 12:19:33;;;;;;;11.27;1.07;;;;;;;;;;4948612;28;20393;-89
2022/10/11 12:22:16;;;;;;;3.23;1.17;;;;;;;;;;4963831;28;20210;-91
2022/10/11 12:24:55;;;;;;;8.60;1.23;;;;;;;;;;4961114;28;20971;-91
2022/10/11 12:27:43;;;;;;;12.17;2.00;;;;;;;;;;4965115;28;20212;-90
2022/10/11 12:30:25;;;;;;;11.90;1.47;;;;;;;;;;4959996;28;20210;-91
2022/10/11 12:32:53;;;;;;;4.70;0.90;;;;;;;;;;4964840;28;20767;-90
2022/10/11 12:35:42;;;;;;;7.17;1.20;;;;;;;;;;4971990;28;20240;-91
2022/10/11 12:38:18;;;;;;;7.37;1.13;;;;;;;;;;4986209;28;20217;-92
2022/10/11 12:40:47;;;;;;;9.23;1.00;;;;;;;;;;4979383;28;20205;-91
2022/10/11 12:43:25;;;;;;;3.93;0.70;;;;;;;;;;4970633;28;20208;-92
2022/10/11 12:45:53;;;;;;;8.17;1.00;;;;;;;;;;4964376;28;20236;-90
2022/10/11 12:48:44;;;;;;;5.90;0.90;;;;;;;;;;4971804;28;20202;-90
2022/10/11 12:51:23;;;;;;;6.20;1.20;;;;;;;;;;4955340;28;20211;-90
2022/10/11 12:54:05;;;;;;;4.03;1.00;;;;;;;;;;4972696;28;20648;-92
2022/10/11 12:56:44;;;;;;;6.00;1.20;;;;;;;;;;4971310;28;20257;-92
2022/10/11 12:59:19;;;;;;;5.00;0.83;;;;;;;;;;4979723;28;20265;-91
2022/10/11 13:01:54;;;;;;;8.57;1.17;;;;;;;;;;4975140;28;20272;-91
2022/10/11 13:04:22;;;;;;;6.53;1.10;;;;;;;;;;4968942;28;20244;-90
2022/10/11 13:06:52;;;;;;;3.60;1.00;;;;;;;;;;4973677;28;20289;-90
2022/10/11 13:09:24;;;;;;;3.57;1.00;;;;;;;;;;4976537;28;20201;-90
2022/10/11 13:11:56;;;;;;;5.63;1.13;;;;;;;;;;4965825;28;20213;-90
2022/10/11 13:14:25;;;;;;;9.00;1.30;;;;;;;;;;4980757;28;20244;-91
2022/10/11 13:16:58;;;;;;;5.30;0.97;;;;;;;;;;4979919;28;20230;-91
2022/10/11 13:19:28;;;;;;;10.80;1.20;;;;;;;;;;4977388;28;20235;-89
2022/10/11 13:21:59;;;;;;;6.67;1.37;;;;;;;;;;4979929;28;20209;-91
2022/10/11 13:24:28;;;;;;;8.07;1.10;;;;;;;;;;4980346;28;20308;-93
2022/10/11 13:26:58;;;;;;;7.63;1.23;;;;;;;;;;4987912;28;20269;-91
2022/10/11 13:29:31;;;;;;;7.03;1.07;;;;;;;;;;4972900;28;20206;-90
2022/10/11 13:31:59;;;;;;;7.40;1.10;;;;;;;;;;4974052;28;20212;-91
2022/10/11 13:34:27;;;;;;;5.07;1.10;;;;;;;;;;4978369;28;20263;-91
2022/10/11 13:36:58;;;;;;;11.57;1.20;;;;;;;;;;4979138;28;20598;-90
2022/10/11 13:39:28;;;;;;;6.37;1.40;;;;;;;;;;4981949;28;20229;-91
2022/10/11 13:42:00;;;;;;;10.47;1.03;;;;;;;;;;4971839;28;20209;-91
2022/10/11 13:44:27;;;;;;;12.07;1.23;;;;;;;;;;4963830;28;20715;-89
2022/10/11 13:46:55;;;;;;;7.87;1.50;;;;;;;;;;4966635;28;20292;-88
2022/10/11 13:49:28;;;;;;;9.67;2.60;;;;;;;;;;4966175;28;20202;-90
2022/10/11 13:51:59;;;;;;;4.90;1.20;;;;;;;;;;4969084;28;20273;-90
2022/10/11 13:54:26;;;;;;;13.83;2.60;;;;;;;;;;4970001;28;20249;-90
2022/10/11 13:56:56;;;;;;;8.47;1.60;;;;;;;;;;4960103;28;20245;-91
2022/10/11 13:59:26;;;;;;;9.53;1.30;;;;;;;;;;4975087;28;20229;-90
2022/10/11 14:01:58;;;;;;;7.87;1.87;;;;;;;;;;4980734;28;20292;-91
2022/10/11 14:04:25;;;;;;;5.03;1.17;;;;;;;;;;4965978;28;20746;-90
2022/10/11 14:06:55;;;;;;;7.30;1.30;;;;;;;;;;4960555;28;20708;-91
2022/10/11 14:09:23;;;;;;;15.53;3.33;;;;;;;;;;4960897;28;20297;-89
2022/10/11 14:11:51;;;;;;;8.47;1.33;;;;;;;;;;4967341;28;20280;-90
2022/10/11 14:14:48;;;;;;;7.87;1.00;;;;;;;;;;4966196;28;20234;-90
2022/10/11 14:17:18;;;;;;;8.27;1.33;;;;;;;;;;4958307;28;20225;-89
2022/10/11 14:19:47;;;;;;;5.57;1.27;;;;;;;;;;4961495;28;20241;-90
2022/10/11 14:22:15;;;;;;;4.73;1.63;;;;;;;;;;4961977;28;20663;-88
2022/10/11 14:24:42;;;;;;;6.17;0.90;;;;;;;;;;4957912;28;20225;-89
2022/10/11 14:27:16;;;;;;;4.90;1.23;;;;;;;;;;4961000;28;20703;-88
2022/10/11 14:29:44;;;;;;;5.33;0.90;;;;;;;;;;4961548;28;20700;-88
2022/10/11 14:32:12;;;;;;;5.27;1.60;;;;;;;;;;4959726;28;20213;-89
2022/10/11 14:34:43;;;;;;;8.50;1.27;;;;;;;;;;4962745;28;20218;-88
2022/10/11 14:37:11;;;;;;;12.77;1.80;;;;;;;;;;4958951;28;20222;-92
2022/10/11 14:39:40;;;;;;;7.83;1.23;;;;;;;;;;4968014;28;20295;-91
2022/10/11 14:42:07;;;;;;;7.57;1.30;;;;;;;;;;4970989;28;20524;-90
2022/10/11 14:44:34;;;;;;;8.27;1.20;;;;;;;;;;4957152;28;20296;-90
2022/10/11 14:47:05;;;;;;;4.63;0.90;;;;;;;;;;4958746;28;20673;-91
2022/10/11 14:49:34;;;;;;;11.23;3.57;;;;;;;;;;4959119;28;20669;-91
2022/10/11 14:52:04;;;;;;;11.80;2.20;;;;;;;;;;4962124;28;20207;-91